Time;durP1;ratioP1;P1;durP2;ratioP2;P2;SDS_P1;SDS_P2;PMS_P1;PMS_P2;Temp;Humidity;BMP_temperature;BMP_pressure;BME280_temperature;BME280_humidity;BME280_pressure;Samples;Min_cycle;Max_cycle;Signal;HPM_P1;HPM_P2
2021/08/24 00:02:06;;;;;;;3.42;2.05;;;19.80;99.90;;;;;;5093773;28;20198;-82
2021/08/24 00:04:33;;;;;;;3.28;1.73;;;19.80;99.90;;;;;;5093246;28;20229;-80
2021/08/24 00:07:00;;;;;;;7.60;1.80;;;19.80;99.90;;;;;;5093797;28;20254;-81
2021/08/24 00:09:27;;;;;;;2.28;1.90;;;19.70;99.90;;;;;;5093069;28;20206;-83
2021/08/24 00:11:54;;;;;;;2.33;1.60;;;19.60;99.90;;;;;;5093578;28;20208;-80
2021/08/24 00:14:23;;;;;;;2.20;1.38;;;19.60;99.90;;;;;;5093793;28;20210;-80
2021/08/24 00:16:50;;;;;;;1.60;1.50;;;19.60;99.90;;;;;;5094234;28;20240;-83
2021/08/24 00:19:17;;;;;;;3.30;2.15;;;19.50;99.90;;;;;;5093792;28;20210;-84
2021/08/24 00:21:44;;;;;;;1.83;1.35;;;19.30;99.90;;;;;;5092987;28;20225;-81
2021/08/24 00:24:12;;;;;;;2.83;1.63;;;19.30;99.90;;;;;;5093123;28;20376;-81
2021/08/24 00:26:39;;;;;;;2.53;1.67;;;19.30;99.90;;;;;;5093477;28;20247;-81
2021/08/24 00:29:07;;;;;;;2.20;2.00;;;19.30;99.90;;;;;;5093374;28;20212;-80
2021/08/24 00:31:35;;;;;;;4.32;2.50;;;19.30;99.90;;;;;;5093151;28;20263;-83
2021/08/24 00:34:02;;;;;;;4.03;2.25;;;19.30;99.90;;;;;;5093228;28;20247;-81
2021/08/24 00:36:29;;;;;;;3.55;3.08;;;19.20;99.90;;;;;;5092379;28;20629;-82
2021/08/24 00:38:57;;;;;;;2.28;2.03;;;19.10;99.90;;;;;;5093474;28;20263;-81
2021/08/24 00:41:25;;;;;;;5.38;2.55;;;19.00;99.90;;;;;;5092708;28;20206;-82
2021/08/24 00:43:53;;;;;;;3.58;1.85;;;18.90;99.90;;;;;;5092197;28;20316;-83
2021/08/24 00:46:30;;;;;;;2.38;1.65;;;18.80;99.90;;;;;;5093274;28;20198;-83
2021/08/24 00:49:03;;;;;;;3.05;2.00;;;18.80;99.90;;;;;;5092714;28;20672;-80
2021/08/24 00:51:33;;;;;;;3.10;1.90;;;18.90;99.90;;;;;;5092334;28;20209;-81
2021/08/24 00:54:00;;;;;;;1.75;1.65;;;18.80;99.90;;;;;;5093238;28;20270;-80
2021/08/24 00:56:30;;;;;;;2.70;2.42;;;18.80;99.90;;;;;;5092555;28;20258;-79
2021/08/24 00:58:58;;;;;;;2.53;2.00;;;18.80;99.90;;;;;;5092877;28;20202;-80
2021/08/24 01:01:25;;;;;;;2.10;1.88;;;18.80;99.90;;;;;;5092325;28;20624;-80
2021/08/24 01:03:52;;;;;;;2.53;2.33;;;18.70;99.90;;;;;;5092362;28;20225;-79
2021/08/24 01:06:29;;;;;;;3.22;1.90;;;18.70;99.90;;;;;;5092786;28;20629;-81
2021/08/24 01:09:17;;;;;;;2.40;1.75;;;18.80;99.90;;;;;;5092440;28;20262;-81
2021/08/24 01:11:51;;;;;;;2.38;2.08;;;18.80;99.90;;;;;;5090426;28;20213;-83
2021/08/24 01:14:22;;;;;;;2.35;1.80;;;18.90;99.90;;;;;;5092862;28;20229;-82
2021/08/24 01:16:57;;;;;;;2.95;1.60;;;18.80;99.90;;;;;;5092904;28;20266;-82
2021/08/24 01:19:53;;;;;;;4.32;3.05;;;18.70;99.90;;;;;;5092086;28;20250;-80
2021/08/24 01:23:08;;;;;;;3.42;2.33;;;18.60;99.90;;;;;;5092243;28;20248;-81
2021/08/24 01:25:39;;;;;;;2.60;1.75;;;18.60;99.90;;;;;;5091791;28;20233;-82
2021/08/24 01:28:13;;;;;;;2.28;2.00;;;18.60;99.90;;;;;;5092650;28;20205;-83
2021/08/24 01:30:59;;;;;;;2.55;1.73;;;18.60;99.90;;;;;;5091493;28;20209;-83
2021/08/24 01:33:32;;;;;;;1.73;1.50;;;18.60;99.90;;;;;;5091996;28;20627;-80
2021/08/24 01:36:20;;;;;;;2.17;1.98;;;18.60;99.90;;;;;;5091737;28;20250;-83
2021/08/24 01:38:55;;;;;;;3.75;2.42;;;18.60;99.90;;;;;;5091821;28;20205;-80
2021/08/24 01:41:28;;;;;;;2.40;1.75;;;18.50;99.90;;;;;;5091639;28;20201;-83
2021/08/24 01:44:02;;;;;;;1.98;1.67;;;18.50;99.90;;;;;;5091854;28;20278;-83
2021/08/24 01:46:40;;;;;;;2.83;2.10;;;18.50;99.90;;;;;;5091393;28;20250;-79
2021/08/24 01:49:08;;;;;;;1.70;1.50;;;18.40;99.90;;;;;;5091390;28;20669;-81
2021/08/24 01:51:41;;;;;;;2.10;1.90;;;18.40;99.90;;;;;;5091093;28;20202;-79
2021/08/24 01:54:17;;;;;;;2.85;2.28;;;18.30;99.90;;;;;;5091816;28;20205;-80
2021/08/24 01:56:46;;;;;;;3.83;1.88;;;18.30;99.90;;;;;;5091291;28;20201;-80
2021/08/24 01:59:18;;;;;;;2.55;1.77;;;18.30;99.90;;;;;;5091567;28;20201;-79
2021/08/24 02:01:50;;;;;;;4.32;1.95;;;18.20;99.90;;;;;;5090924;28;20568;-82
2021/08/24 02:04:24;;;;;;;3.50;2.00;;;18.20;99.90;;;;;;5091708;28;20228;-80
2021/08/24 02:06:53;;;;;;;2.30;2.10;;;18.20;99.90;;;;;;5091198;28;20729;-80
2021/08/24 02:09:24;;;;;;;2.13;1.85;;;18.10;99.90;;;;;;5091729;28;20201;-80
2021/08/24 02:11:52;;;;;;;1.65;1.55;;;18.10;99.90;;;;;;5091760;28;20427;-80
2021/08/24 02:14:20;;;;;;;2.63;2.35;;;18.20;99.90;;;;;;5091755;28;20574;-83
2021/08/24 02:16:49;;;;;;;2.17;1.98;;;18.10;99.90;;;;;;5091187;28;20643;-81
2021/08/24 02:19:22;;;;;;;2.95;2.03;;;18.10;99.90;;;;;;5090753;28;20584;-82
2021/08/24 02:21:54;;;;;;;1.88;1.67;;;18.00;99.90;;;;;;5091327;28;20212;-81
2021/08/24 02:24:25;;;;;;;1.98;1.73;;;18.00;99.90;;;;;;5090944;28;20270;-79
2021/08/24 02:26:54;;;;;;;2.63;1.85;;;18.00;99.90;;;;;;5091149;28;20247;-81
2021/08/24 02:29:21;;;;;;;2.05;1.95;;;18.00;99.90;;;;;;5091017;28;20247;-79
2021/08/24 02:31:55;;;;;;;5.05;2.35;;;18.10;99.90;;;;;;5091614;28;20209;-81
2021/08/24 02:34:28;;;;;;;3.10;1.73;;;18.00;99.90;;;;;;5090404;28;20193;-80
2021/08/24 02:37:05;;;;;;;1.85;1.75;;;18.00;99.90;;;;;;5090868;28;20205;-83
2021/08/24 02:39:37;;;;;;;2.15;1.90;;;17.90;99.90;;;;;;5090149;28;20676;-81
2021/08/24 02:42:12;;;;;;;3.45;1.88;;;17.90;99.90;;;;;;5090788;28;20706;-81
2021/08/24 02:44:44;;;;;;;2.05;1.80;;;17.90;99.90;;;;;;5090213;28;20233;-82
2021/08/24 02:47:11;;;;;;;2.30;2.08;;;17.90;99.90;;;;;;5090538;28;20902;-79
2021/08/24 02:49:38;;;;;;;2.55;1.92;;;17.80;99.90;;;;;;5090422;28;20251;-83
2021/08/24 02:52:10;;;;;;;2.92;2.40;;;17.70;99.90;;;;;;5090594;28;20262;-80
2021/08/24 02:54:40;;;;;;;1.90;1.63;;;17.70;99.90;;;;;;5090177;28;20201;-83
2021/08/24 02:57:08;;;;;;;2.35;2.00;;;17.70;99.90;;;;;;5087802;28;20681;-82
2021/08/24 02:59:36;;;;;;;6.88;2.13;;;17.60;99.90;;;;;;5089936;28;20243;-80
2021/08/24 03:02:05;;;;;;;2.30;2.03;;;17.70;99.90;;;;;;5090454;28;20205;-82
2021/08/24 03:04:32;;;;;;;2.45;1.80;;;17.60;99.90;;;;;;5089782;28;20221;-80
2021/08/24 03:07:04;;;;;;;2.47;2.25;;;17.70;99.90;;;;;;5093982;28;20208;-80
2021/08/24 03:09:35;;;;;;;3.58;1.70;;;17.70;99.90;;;;;;5097124;28;20263;-82
2021/08/24 03:12:12;;;;;;;2.78;2.13;;;17.60;99.90;;;;;;5097711;28;20201;-81
2021/08/24 03:14:44;;;;;;;2.25;2.05;;;17.70;99.90;;;;;;5096486;28;20258;-82
2021/08/24 03:17:16;;;;;;;2.42;2.20;;;17.70;99.90;;;;;;5096805;28;20274;-80
2021/08/24 03:19:45;;;;;;;3.20;1.67;;;17.60;99.90;;;;;;5096754;28;20205;-83
2021/08/24 03:22:13;;;;;;;1.75;1.65;;;17.60;99.90;;;;;;5097080;28;20263;-83
2021/08/24 03:24:42;;;;;;;3.38;1.98;;;17.60;99.90;;;;;;5096822;28;20281;-80
2021/08/24 03:27:11;;;;;;;1.98;1.67;;;17.60;99.90;;;;;;5097093;28;20344;-84
2021/08/24 03:29:38;;;;;;;2.20;2.00;;;17.70;99.90;;;;;;5096832;28;20209;-81
2021/08/24 03:32:08;;;;;;;4.38;1.73;;;17.80;99.90;;;;;;5097085;28;20201;-80
2021/08/24 03:34:35;;;;;;;3.72;2.08;;;17.60;99.90;;;;;;5096337;28;20201;-83
2021/08/24 03:37:03;;;;;;;2.85;1.90;;;17.50;99.90;;;;;;5097147;28;20205;-83
2021/08/24 03:39:29;;;;;;;2.10;1.90;;;17.50;99.90;;;;;;5096649;28;20205;-79
2021/08/24 03:41:58;;;;;;;3.33;1.83;;;17.70;99.90;;;;;;5096990;28;20205;-81
2021/08/24 03:44:25;;;;;;;2.03;1.65;;;17.70;99.90;;;;;;5096371;28;20229;-80
2021/08/24 03:46:52;;;;;;;2.00;1.77;;;17.50;99.90;;;;;;5096747;28;20205;-80
2021/08/24 03:49:19;;;;;;;2.38;1.75;;;17.40;99.90;;;;;;5097130;28;20262;-80
2021/08/24 03:51:46;;;;;;;2.20;2.00;;;17.20;99.90;;;;;;5096955;28;20212;-81
2021/08/24 03:54:14;;;;;;;2.20;2.00;;;17.20;99.90;;;;;;5096815;28;20206;-82
2021/08/24 03:56:42;;;;;;;2.20;1.70;;;17.30;99.90;;;;;;5096393;28;20213;-79
2021/08/24 03:59:10;;;;;;;2.47;1.98;;;17.30;99.90;;;;;;5096814;28;20756;-83
2021/08/24 04:01:37;;;;;;;3.65;2.20;;;17.40;99.90;;;;;;5095969;28;20254;-80
2021/08/24 04:04:05;;;;;;;2.45;2.10;;;17.30;99.90;;;;;;5096900;28;20205;-80
2021/08/24 04:06:32;;;;;;;2.38;2.08;;;17.30;99.90;;;;;;5096068;28;20644;-81
2021/08/24 04:08:59;;;;;;;3.05;1.80;;;17.30;99.90;;;;;;5096787;28;20258;-80
2021/08/24 04:11:26;;;;;;;2.53;2.33;;;17.20;99.90;;;;;;5096557;28;20209;-81
2021/08/24 04:13:53;;;;;;;3.58;1.90;;;17.10;99.90;;;;;;5096323;28;20224;-81
2021/08/24 04:16:21;;;;;;;7.00;2.25;;;17.00;99.90;;;;;;5097059;28;20205;-81
2021/08/24 04:18:48;;;;;;;3.13;2.10;;;16.90;99.90;;;;;;5093489;28;20722;-82
2021/08/24 04:21:18;;;;;;;5.15;2.88;;;16.80;99.90;;;;;;5093383;28;20263;-80
2021/08/24 04:23:46;;;;;;;3.20;1.95;;;16.90;99.90;;;;;;5092672;28;20202;-81
2021/08/24 04:26:14;;;;;;;3.78;2.15;;;17.00;99.90;;;;;;5093504;28;20233;-82
2021/08/24 04:28:41;;;;;;;3.75;1.65;;;17.00;99.90;;;;;;5092584;28;20267;-81
2021/08/24 04:31:13;;;;;;;2.35;1.90;;;16.90;99.90;;;;;;5093418;28;20254;-81
2021/08/24 04:33:42;;;;;;;2.40;1.88;;;16.90;99.90;;;;;;5092549;28;20198;-80
2021/08/24 04:36:09;;;;;;;3.67;2.17;;;16.90;99.90;;;;;;5093189;28;20255;-82
2021/08/24 04:38:36;;;;;;;4.18;1.80;;;17.00;99.90;;;;;;5092660;28;20292;-83
2021/08/24 04:41:06;;;;;;;2.70;1.90;;;17.00;99.90;;;;;;5092992;28;20202;-81
2021/08/24 04:43:33;;;;;;;2.55;2.28;;;17.10;99.90;;;;;;5092570;28;20217;-80
2021/08/24 04:46:01;;;;;;;3.75;2.30;;;16.90;99.90;;;;;;5092916;28;20229;-81
2021/08/24 04:48:28;;;;;;;3.65;2.30;;;16.90;99.90;;;;;;5092496;28;20665;-83
2021/08/24 04:50:56;;;;;;;3.10;2.00;;;17.00;99.90;;;;;;5092772;28;20206;-82
2021/08/24 04:53:24;;;;;;;2.22;2.10;;;16.90;99.90;;;;;;5093449;28;20220;-79
2021/08/24 04:55:51;;;;;;;2.28;1.70;;;16.90;99.90;;;;;;5091204;28;20210;-79
2021/08/24 04:58:19;;;;;;;5.70;2.28;;;16.90;99.90;;;;;;5092928;28;20202;-80
2021/08/24 05:00:46;;;;;;;2.70;1.73;;;16.90;99.90;;;;;;5091979;28;20205;-81
2021/08/24 05:03:13;;;;;;;2.35;2.03;;;16.90;99.90;;;;;;5092463;28;20568;-81
2021/08/24 05:05:40;;;;;;;2.88;1.75;;;16.90;99.90;;;;;;5092218;28;20233;-80
2021/08/24 05:08:08;;;;;;;3.38;2.03;;;16.90;99.90;;;;;;5092666;28;20247;-78
2021/08/24 05:10:35;;;;;;;3.65;1.90;;;16.90;99.90;;;;;;5078829;28;20209;-81
2021/08/24 05:13:03;;;;;;;3.03;2.72;;;16.70;99.90;;;;;;5092162;28;20217;-81
2021/08/24 05:15:30;;;;;;;1.88;1.50;;;16.70;99.90;;;;;;5092402;28;20201;-79
2021/08/24 05:17:57;;;;;;;2.53;2.15;;;16.80;99.90;;;;;;5092062;28;20286;-82
2021/08/24 05:20:25;;;;;;;3.08;2.17;;;16.80;99.90;;;;;;5092202;28;20259;-82
2021/08/24 05:22:52;;;;;;;4.72;1.70;;;16.80;99.90;;;;;;5092197;28;20217;-79
2021/08/24 05:25:22;;;;;;;1.88;1.60;;;16.80;99.90;;;;;;5092091;28;20225;-79
2021/08/24 05:27:50;;;;;;;3.03;2.13;;;16.70;99.90;;;;;;5092070;28;20673;-80
2021/08/24 05:30:21;;;;;;;4.28;2.00;;;16.80;99.90;;;;;;5091560;28;20209;-82
2021/08/24 05:32:49;;;;;;;2.85;1.73;;;16.70;99.90;;;;;;5092164;28;20579;-80
2021/08/24 05:35:17;;;;;;;3.08;1.73;;;16.70;99.90;;;;;;5092063;28;20213;-80
2021/08/24 05:37:44;;;;;;;2.13;1.60;;;16.70;99.90;;;;;;5091422;28;20210;-82
2021/08/24 05:40:12;;;;;;;2.28;2.03;;;16.70;99.90;;;;;;5092160;28;20205;-83
2021/08/24 05:42:41;;;;;;;2.65;1.75;;;16.70;99.90;;;;;;5091420;28;20710;-80
2021/08/24 05:45:10;;;;;;;2.53;1.90;;;16.80;99.90;;;;;;5091541;28;20233;-80
2021/08/24 05:47:37;;;;;;;3.05;2.20;;;16.80;99.90;;;;;;5091777;28;20205;-79
2021/08/24 05:50:06;;;;;;;2.70;2.15;;;16.80;99.90;;;;;;5091945;28;20210;-78
2021/08/24 05:52:33;;;;;;;2.90;1.60;;;16.90;99.90;;;;;;5091638;28;20209;-79
2021/08/24 05:55:00;;;;;;;4.45;2.67;;;16.80;99.90;;;;;;5091286;28;20259;-81
2021/08/24 05:57:27;;;;;;;3.28;2.03;;;16.80;99.90;;;;;;5091596;28;20209;-78
2021/08/24 05:59:55;;;;;;;2.92;1.67;;;16.80;99.90;;;;;;5077525;28;20202;-78
2021/08/24 06:02:22;;;;;;;3.83;2.40;;;17.00;99.90;;;;;;5091894;28;20217;-81
2021/08/24 06:04:49;;;;;;;3.53;2.40;;;17.00;99.90;;;;;;5091104;28;20205;-80
2021/08/24 06:07:16;;;;;;;6.53;2.47;;;17.00;99.90;;;;;;5091522;28;20202;-79
2021/08/24 06:09:43;;;;;;;3.50;2.45;;;17.00;99.90;;;;;;5090981;28;20205;-80
2021/08/24 06:12:11;;;;;;;5.60;2.22;;;17.00;99.90;;;;;;5090951;28;20201;-79
2021/08/24 06:14:38;;;;;;;4.55;2.10;;;17.00;99.90;;;;;;5091257;28;20205;-82
2021/08/24 06:17:06;;;;;;;3.40;3.08;;;17.10;99.90;;;;;;5091269;28;20255;-82
2021/08/24 06:19:33;;;;;;;3.25;2.20;;;17.00;99.90;;;;;;5091074;28;20209;-81
2021/08/24 06:22:01;;;;;;;2.70;2.50;;;17.00;99.90;;;;;;5090595;28;20201;-79
2021/08/24 06:24:30;;;;;;;3.60;2.45;;;17.10;99.90;;;;;;5091056;28;20255;-82
2021/08/24 06:26:58;;;;;;;4.00;2.45;;;17.20;99.90;;;;;;5090428;28;20229;-81
2021/08/24 06:29:25;;;;;;;3.33;2.00;;;17.20;99.90;;;;;;5091279;28;20202;-78
2021/08/24 06:31:55;;;;;;;2.75;2.22;;;17.40;99.90;;;;;;5090797;28;20673;-82
2021/08/24 06:34:24;;;;;;;4.68;2.65;;;17.50;99.90;;;;;;5091491;28;20212;-79
2021/08/24 06:36:52;;;;;;;6.97;2.35;;;17.50;99.90;;;;;;5090430;28;20258;-80
2021/08/24 06:39:19;;;;;;;3.50;2.30;;;17.60;99.90;;;;;;5090521;28;20220;-80
2021/08/24 06:41:47;;;;;;;3.75;2.47;;;17.60;99.90;;;;;;5090098;28;20214;-82
2021/08/24 06:44:14;;;;;;;4.82;3.05;;;17.60;99.90;;;;;;5090585;28;20266;-79
2021/08/24 06:46:41;;;;;;;4.70;2.42;;;17.70;99.90;;;;;;5090262;28;20708;-80
2021/08/24 06:49:09;;;;;;;5.55;2.33;;;17.70;99.90;;;;;;5090705;28;20201;-79
2021/08/24 06:51:37;;;;;;;6.10;2.50;;;17.90;99.90;;;;;;5090445;28;20270;-79
2021/08/24 06:54:06;;;;;;;5.85;2.67;;;17.90;99.90;;;;;;5090399;28;20205;-82
2021/08/24 06:56:35;;;;;;;3.72;2.78;;;17.90;99.90;;;;;;5090957;28;20304;-80
2021/08/24 06:59:03;;;;;;;5.35;2.95;;;18.00;99.90;;;;;;5090462;28;20202;-80
2021/08/24 07:01:31;;;;;;;2.80;2.58;;;18.00;99.90;;;;;;5090415;28;20208;-81
2021/08/24 07:03:58;;;;;;;2.22;2.05;;;18.10;99.90;;;;;;5090124;28;20206;-80
2021/08/24 07:06:25;;;;;;;3.22;2.30;;;18.30;99.90;;;;;;5090220;28;20769;-82
2021/08/24 07:08:56;;;;;;;2.67;2.08;;;18.40;99.90;;;;;;5090912;28;20205;-80
2021/08/24 07:11:26;;;;;;;2.28;2.08;;;18.50;99.90;;;;;;5091098;28;20201;-80
2021/08/24 07:13:54;;;;;;;2.38;2.03;;;18.50;99.90;;;;;;5090337;28;20209;-81
2021/08/24 07:16:21;;;;;;;2.85;2.50;;;18.70;99.90;;;;;;5090419;28;20247;-81
2021/08/24 07:18:48;;;;;;;2.88;2.65;;;18.80;99.90;;;;;;5089549;28;20353;-81
2021/08/24 07:21:17;;;;;;;2.63;2.22;;;18.90;99.90;;;;;;5090508;28;20259;-79
2021/08/24 07:23:46;;;;;;;2.85;2.65;;;19.10;99.90;;;;;;5089700;28;20209;-81
2021/08/24 07:26:15;;;;;;;2.75;2.38;;;19.10;99.90;;;;;;5090511;28;20264;-79
2021/08/24 07:28:43;;;;;;;3.05;2.15;;;19.10;99.90;;;;;;5090026;28;20251;-80
2021/08/24 07:31:10;;;;;;;3.58;2.28;;;19.20;99.90;;;;;;5090403;28;20255;-85
2021/08/24 07:33:37;;;;;;;3.38;2.85;;;19.30;99.90;;;;;;5090474;28;20258;-81
2021/08/24 07:36:05;;;;;;;3.38;1.90;;;19.30;99.90;;;;;;5090464;28;20751;-80
2021/08/24 07:38:32;;;;;;;4.00;2.17;;;19.40;99.90;;;;;;5090181;28;20588;-80
2021/08/24 07:40:59;;;;;;;3.00;2.03;;;19.60;99.90;;;;;;5089751;28;20283;-80
2021/08/24 07:43:27;;;;;;;3.33;2.00;;;19.70;99.90;;;;;;5090312;28;20674;-80
2021/08/24 07:45:54;;;;;;;3.72;2.08;;;19.90;99.90;;;;;;5090003;28;20469;-81
2021/08/24 07:48:21;;;;;;;3.20;2.00;;;19.90;99.90;;;;;;5090091;28;20616;-83
2021/08/24 07:50:48;;;;;;;2.70;2.45;;;19.90;99.90;;;;;;5089793;28;20216;-79
2021/08/24 07:53:15;;;;;;;3.40;3.15;;;19.90;99.90;;;;;;5092068;28;20617;-79
2021/08/24 07:55:42;;;;;;;2.55;2.35;;;19.90;99.90;;;;;;5093671;28;20251;-84
2021/08/24 07:58:09;;;;;;;2.67;2.45;;;20.00;99.90;;;;;;5093896;28;20205;-81
2021/08/24 08:00:38;;;;;;;2.95;2.65;;;20.20;99.90;;;;;;5094213;28;20232;-79
2021/08/24 08:03:05;;;;;;;3.42;2.42;;;20.40;99.90;;;;;;5093460;28;20262;-81
2021/08/24 08:05:32;;;;;;;2.33;2.13;;;20.50;99.90;;;;;;5093574;28;20226;-81
2021/08/24 08:07:59;;;;;;;2.47;2.20;;;20.60;99.90;;;;;;5093831;28;20214;-79
2021/08/24 08:10:26;;;;;;;2.58;2.38;;;20.70;99.90;;;;;;5093935;28;20259;-84
2021/08/24 08:12:53;;;;;;;2.75;2.22;;;20.80;99.90;;;;;;5093057;28;20681;-80
2021/08/24 08:15:21;;;;;;;2.78;2.05;;;20.90;99.90;;;;;;5093672;28;20225;-84
2021/08/24 08:17:49;;;;;;;3.15;2.85;;;21.00;99.90;;;;;;5093074;28;20266;-80
2021/08/24 08:20:17;;;;;;;3.33;2.38;;;21.10;99.90;;;;;;5093515;28;20201;-81
2021/08/24 08:22:44;;;;;;;3.83;2.13;;;21.30;99.90;;;;;;5092970;28;20625;-80
2021/08/24 08:25:12;;;;;;;5.00;2.30;;;21.30;99.90;;;;;;5093211;28;20266;-80
2021/08/24 08:27:39;;;;;;;3.78;2.40;;;21.40;99.90;;;;;;5093653;28;20294;-79
2021/08/24 08:30:08;;;;;;;2.25;2.05;;;21.50;99.90;;;;;;5093418;28;20572;-87
2021/08/24 08:32:39;;;;;;;3.85;1.85;;;21.50;99.90;;;;;;5093142;28;20678;-79
2021/08/24 08:35:08;;;;;;;2.58;2.33;;;21.60;99.90;;;;;;5093553;28;20209;-78
2021/08/24 08:37:35;;;;;;;3.08;1.85;;;21.70;99.90;;;;;;5092892;28;20217;-80
2021/08/24 08:40:03;;;;;;;2.20;2.00;;;22.10;99.90;;;;;;5092574;28;20209;-81
2021/08/24 08:42:48;;;;;;;2.83;2.25;;;22.00;99.90;;;;;;5093116;28;20197;-79
2021/08/24 08:45:18;;;;;;;2.95;1.52;;;22.20;99.90;;;;;;5093170;28;20225;-80
2021/08/24 08:47:59;;;;;;;2.83;2.33;;;22.40;99.90;;;;;;5092241;28;20244;-81
2021/08/24 08:50:35;;;;;;;1.98;1.75;;;22.40;99.90;;;;;;5093365;28;20208;-80
2021/08/24 08:53:10;;;;;;;2.35;1.77;;;22.30;99.90;;;;;;5092190;28;20738;-79
2021/08/24 08:55:46;;;;;;;4.50;2.97;;;22.60;99.90;;;;;;5092796;28;20258;-79
2021/08/24 08:58:36;;;;;;;2.20;2.00;;;22.80;99.90;;;;;;5092933;28;20197;-80
2021/08/24 09:01:14;;;;;;;2.60;2.17;;;23.00;99.90;;;;;;5091941;28;20209;-79
2021/08/24 09:03:53;;;;;;;1.85;1.70;;;23.00;99.90;;;;;;5092172;28;20202;-80
2021/08/24 09:06:24;;;;;;;3.20;2.10;;;23.10;99.90;;;;;;5092244;28;20312;-82
2021/08/24 09:08:54;;;;;;;2.00;1.80;;;23.30;99.90;;;;;;5078092;28;20278;-80
2021/08/24 09:11:26;;;;;;;2.40;1.80;;;23.40;99.90;;;;;;5092381;28;20684;-80
2021/08/24 09:13:58;;;;;;;2.05;1.85;;;23.70;99.90;;;;;;5091886;28;20198;-80
2021/08/24 09:16:30;;;;;;;2.40;2.20;;;23.90;99.90;;;;;;5092352;28;20290;-80
2021/08/24 09:19:01;;;;;;;2.45;2.15;;;24.20;99.90;;;;;;5092289;28;20256;-80
2021/08/24 09:21:33;;;;;;;2.20;1.90;;;24.70;99.90;;;;;;5092607;28;20255;-80
2021/08/24 09:24:07;;;;;;;2.50;2.17;;;25.80;99.90;;;;;;5092248;28;20286;-80
2021/08/24 09:26:54;;;;;;;1.98;1.70;;;25.70;99.90;;;;;;5092100;28;20708;-80
2021/08/24 09:29:25;;;;;;;3.75;2.03;;;25.90;99.90;;;;;;5091713;28;20198;-79
2021/08/24 09:31:52;;;;;;;2.00;1.42;;;25.60;99.90;;;;;;5091651;28;20263;-79
2021/08/24 09:34:24;;;;;;;2.22;2.08;;;25.90;99.90;;;;;;5092181;28;20202;-79
2021/08/24 09:36:53;;;;;;;1.90;1.70;;;27.90;99.90;;;;;;5091861;28;20259;-81
2021/08/24 09:39:49;;;;;;;2.40;2.20;;;31.10;99.90;;;;;;5091599;28;20619;-80
2021/08/24 09:42:26;;;;;;;2.42;2.00;;;33.70;99.90;;;;;;5091880;28;20274;-81
2021/08/24 09:44:53;;;;;;;2.90;2.15;;;34.80;99.90;;;;;;5091147;28;20627;-82
2021/08/24 09:47:23;;;;;;;1.85;1.55;;;34.30;99.90;;;;;;5091738;28;20232;-80
2021/08/24 09:49:51;;;;;;;2.03;1.92;;;34.20;99.90;;;;;;5091213;28;20254;-80
2021/08/24 09:52:23;;;;;;;1.60;1.50;;;32.70;99.90;;;;;;5092032;28;20269;-80
2021/08/24 09:54:58;;;;;;;2.28;2.08;;;33.70;99.90;;;;;;5077795;28;20197;-81
2021/08/24 09:57:27;;;;;;;4.57;1.70;;;34.80;99.90;;;;;;5091774;28;20212;-79
2021/08/24 10:00:01;;;;;;;1.85;1.75;;;36.30;99.90;;;;;;5077108;28;20238;-80
2021/08/24 10:02:36;;;;;;;2.17;1.95;;;36.40;99.90;;;;;;5091630;28;20266;-80
2021/08/24 10:05:04;;;;;;;1.73;1.63;;;36.40;99.90;;;;;;5077560;28;20242;-81
2021/08/24 10:07:34;;;;;;;1.90;1.80;;;36.40;99.90;;;;;;5091732;28;20233;-80
2021/08/24 10:10:04;;;;;;;1.60;1.50;;;35.80;99.90;;;;;;5090973;28;20563;-81
2021/08/24 10:12:33;;;;;;;3.22;2.10;;;33.50;99.90;;;;;;5091993;28;20204;-79
2021/08/24 10:15:21;;;;;;;4.28;1.48;;;32.00;99.90;;;;;;5090765;28;20749;-80
2021/08/24 10:17:48;;;;;;;3.03;1.75;;;33.10;99.90;;;;;;5090162;28;20289;-80
2021/08/24 10:20:24;;;;;;;1.92;1.48;;;34.90;99.90;;;;;;5090889;28;20676;-82
2021/08/24 10:22:53;;;;;;;2.03;1.52;;;36.10;99.90;;;;;;5091007;28;20208;-80
2021/08/24 10:25:23;;;;;;;2.45;1.55;;;35.30;99.90;;;;;;5091484;28;20262;-79
2021/08/24 10:27:59;;;;;;;1.95;1.55;;;36.20;99.90;;;;;;5090529;28;20229;-80
2021/08/24 10:30:41;;;;;;;1.42;1.10;;;36.20;99.90;;;;;;5090659;28;20212;-79
2021/08/24 10:33:18;;;;;;;2.45;2.25;;;36.10;99.90;;;;;;5090860;28;20204;-80
2021/08/24 10:35:52;;;;;;;1.73;1.63;;;33.30;99.90;;;;;;5090587;28;20283;-81
2021/08/24 10:38:43;;;;;;;2.60;2.25;;;28.90;99.90;;;;;;5091101;28;20238;-80
2021/08/24 10:41:28;;;;;;;1.55;1.20;;;27.20;99.90;;;;;;5091050;28;20211;-80
2021/08/24 10:43:58;;;;;;;2.58;1.83;;;26.70;99.90;;;;;;5089928;28;20274;-81
2021/08/24 10:46:26;;;;;;;1.73;1.63;;;26.70;99.90;;;;;;5090745;28;20669;-80
2021/08/24 10:48:53;;;;;;;2.38;2.17;;;26.50;99.90;;;;;;5090228;28;20209;-81
2021/08/24 10:51:46;;;;;;;2.15;1.88;;;26.50;99.90;;;;;;5090484;28;20251;-80
2021/08/24 10:54:32;;;;;;;5.13;2.05;;;26.60;99.90;;;;;;5090472;28;20205;-80
2021/08/24 10:57:23;;;;;;;2.33;1.90;;;26.40;99.90;;;;;;5090230;28;20209;-80
2021/08/24 11:00:00;;;;;;;2.40;1.60;;;26.60;99.90;;;;;;5090038;28;20197;-79
2021/08/24 11:02:41;;;;;;;2.33;2.13;;;26.00;99.90;;;;;;5090591;28;20707;-80
2021/08/24 11:05:24;;;;;;;1.98;1.88;;;26.10;99.90;;;;;;5090482;28;20251;-80
2021/08/24 11:08:00;;;;;;;1.70;1.60;;;26.00;99.90;;;;;;5090505;28;20286;-80
2021/08/24 11:10:39;;;;;;;2.10;1.83;;;26.40;99.90;;;;;;5090496;28;20209;-80
2021/08/24 11:13:24;;;;;;;2.20;2.00;;;26.60;99.90;;;;;;5090638;28;20282;-79
2021/08/24 11:15:57;;;;;;;2.03;1.90;;;26.60;99.90;;;;;;5090132;28;20282;-79
2021/08/24 11:18:35;;;;;;;1.73;1.40;;;26.90;99.90;;;;;;5090151;28;20676;-80
2021/08/24 11:21:11;;;;;;;2.22;1.73;;;26.80;99.90;;;;;;5090318;28;20262;-80
2021/08/24 11:24:01;;;;;;;1.33;1.23;;;26.80;99.90;;;;;;5090402;28;20280;-79
2021/08/24 11:26:36;;;;;;;1.40;1.30;;;26.90;99.90;;;;;;5089998;28;20205;-80
2021/08/24 11:29:16;;;;;;;6.80;2.08;;;26.90;99.90;;;;;;5093629;28;20251;-83
2021/08/24 11:31:47;;;;;;;2.20;2.00;;;26.80;99.90;;;;;;5094075;28;20213;-80
2021/08/24 11:34:18;;;;;;;1.60;1.50;;;26.40;99.90;;;;;;5094294;28;20209;-81
2021/08/24 11:36:48;;;;;;;2.38;1.70;;;26.80;99.90;;;;;;5093883;28;20205;-80
2021/08/24 11:39:21;;;;;;;1.50;1.20;;;27.20;99.90;;;;;;5093810;28;20209;-80
2021/08/24 11:41:51;;;;;;;1.77;1.67;;;27.40;99.90;;;;;;5093882;28;20201;-81
2021/08/24 11:44:25;;;;;;;3.08;1.50;;;27.50;99.90;;;;;;5093741;28;20725;-79
2021/08/24 11:46:56;;;;;;;2.42;1.30;;;27.50;99.90;;;;;;5093659;28;20629;-81
2021/08/24 11:49:29;;;;;;;1.55;1.45;;;27.40;99.90;;;;;;5093964;28;20206;-80
2021/08/24 11:52:03;;;;;;;2.22;1.70;;;27.40;99.90;;;;;;5093621;28;20209;-79
2021/08/24 11:54:44;;;;;;;1.98;1.80;;;27.00;99.90;;;;;;5093741;28;20206;-80
2021/08/24 11:57:20;;;;;;;1.45;1.35;;;27.50;99.90;;;;;;5093997;28;20217;-84
2021/08/24 11:59:51;;;;;;;1.70;1.35;;;27.60;99.90;;;;;;5093494;28;20209;-81
2021/08/24 12:02:21;;;;;;;1.77;1.65;;;27.10;99.90;;;;;;5093998;28;20657;-80
2021/08/24 12:04:51;;;;;;;1.85;1.67;;;26.60;99.90;;;;;;5093342;28;20205;-79
2021/08/24 12:07:30;;;;;;;1.33;1.23;;;26.10;99.90;;;;;;5094240;28;20619;-80
2021/08/24 12:09:57;;;;;;;1.52;1.42;;;26.20;99.90;;;;;;5092814;28;20677;-81
2021/08/24 12:12:49;;;;;;;1.40;1.30;;;26.60;99.90;;;;;;5093949;28;20251;-81
2021/08/24 12:15:31;;;;;;;1.50;1.33;;;27.10;99.90;;;;;;5093464;28;20288;-79
2021/08/24 12:18:18;;;;;;;1.40;1.30;;;27.30;99.90;;;;;;5093307;28;20760;-80
2021/08/24 12:20:48;;;;;;;2.22;1.80;;;27.20;99.90;;;;;;5092568;28;20213;-81
2021/08/24 12:23:30;;;;;;;1.30;1.20;;;26.80;99.90;;;;;;5093223;28;20205;-80
2021/08/24 12:25:58;;;;;;;2.45;1.20;;;27.40;99.90;;;;;;5093009;28;20278;-80
2021/08/24 12:28:39;;;;;;;2.00;1.63;;;27.60;99.90;;;;;;5093282;28;20785;-80
2021/08/24 12:31:25;;;;;;;2.60;1.80;;;27.70;99.90;;;;;;5093773;28;20254;-79
2021/08/24 12:33:52;;;;;;;1.83;1.60;;;27.50;99.90;;;;;;5092644;28;20550;-80
2021/08/24 12:36:54;;;;;;;1.80;1.70;;;27.70;99.90;;;;;;5093486;28;20209;-81
2021/08/24 12:39:37;;;;;;;1.70;1.60;;;27.60;99.90;;;;;;5089099;28;20204;-81
2021/08/24 12:42:26;;;;;;;2.25;1.20;;;26.80;99.90;;;;;;5093663;28;20223;-79
2021/08/24 12:45:14;;;;;;;2.13;1.58;;;26.10;99.90;;;;;;5092555;28;20689;-81
2021/08/24 12:47:45;;;;;;;2.15;1.30;;;26.40;99.90;;;;;;5092510;28;20229;-79
2021/08/24 12:50:54;;;;;;;2.80;1.55;;;26.80;99.90;;;;;;5093153;28;20259;-79
2021/08/24 12:53:38;;;;;;;2.85;1.70;;;27.20;99.90;;;;;;5081861;28;20262;-79
2021/08/24 12:56:06;;;;;;;1.95;1.42;;;27.60;99.90;;;;;;5092886;28;20205;-80
2021/08/24 12:58:45;;;;;;;2.75;1.40;;;28.00;99.90;;;;;;5093172;28;20214;-78
2021/08/24 13:01:16;;;;;;;1.67;1.58;;;27.90;99.90;;;;;;5092631;28;20213;-79
2021/08/24 13:03:57;;;;;;;3.28;1.80;;;28.30;99.90;;;;;;5092313;28;20205;-79
2021/08/24 13:06:26;;;;;;;1.42;1.27;;;27.80;99.90;;;;;;5092868;28;20232;-80
2021/08/24 13:09:14;;;;;;;2.45;1.50;;;27.00;99.90;;;;;;5092208;28;20233;-80
2021/08/24 13:11:43;;;;;;;2.25;2.00;;;26.90;99.90;;;;;;5091968;28;20212;-79